This is the latest recevied weather packets stored in our database for station/object GW1546. If no packets are shown the sender has not sent any weather packets the latest 10 day(s).
| Time | Temp. | Humidity | Pressure | Rain* | Wind** | Luminosity | Snow |
|---|---|---|---|---|---|---|---|
| 1777849972 | 13.33° C | 50% | 987.8 hPa | 0 mm | - | - | - |
| 1777848143 | 15° C | 43% | 987.4 hPa | 0 mm | - | - | - |
| 1777836981 | 18.33° C | 31% | 989.5 hPa | 0 mm | - | - | - |
| 1777836643 | 17.22° C | 34% | 989.5 hPa | 0 mm | - | - | - |
| 1777832334 | 16.11° C | 34% | 990.5 hPa | 0 mm | - | - | - |
| 1777830500 | 15° C | 39% | 991.1 hPa | 0 mm | - | - | - |
| 1777824410 | 13.33° C | 37% | 992.2 hPa | 0 mm | - | - | - |
| 1777823677 | 12.78° C | 40% | 992.5 hPa | 0 mm | - | - | - |
| 1777821138 | 12.22° C | 40% | 992.8 hPa | 0 mm | - | - | - |
| 1777820790 | 11.67° C | 41% | 992.8 hPa | 0 mm | - | - | - |
| 1777820078 | 11.67° C | 42% | 992.8 hPa | 0 mm | - | - | - |
| 1777818641 | 11.11° C | 42% | 992.8 hPa | 0 mm | - | - | - |
| 1777816828 | 10° C | 53% | 992.8 hPa | 0 mm | - | - | - |
| 1777808179 | 1.11° C | 99% | 993.2 hPa | 0 mm | - | - | - |
| 1777807091 | 1.11° C | 99% | 992.5 hPa | 0 mm | - | - | - |
| 1777804936 | 0.56° C | 99% | 992.2 hPa | 0 mm | - | - | - |
| 1777802774 | 0° C | 99% | 991.8 hPa | 0 mm | - | - | - |
| 1777798814 | 1.11° C | 99% | 991.5 hPa | 0 mm | - | - | - |
| 1777797760 | 1.11° C | 99% | 991.5 hPa | 0 mm | - | - | - |
| 1777797038 | 1.11° C | 99% | 991.1 hPa | 0 mm | - | - | - |
| 1777796691 | 1.11° C | 99% | 991.1 hPa | 0 mm | - | - | - |
| 1777791983 | 2.22° C | 96% | 990.1 hPa | 0 mm | - | - | - |
| 1777789092 | 3.89° C | 93% | 990.1 hPa | 0 mm | - | - | - |
| 1777786957 | 4.44° C | 92% | 990.1 hPa | 0 mm | - | - | - |
| 1777786583 | 4.44° C | 92% | 990.1 hPa | 0 mm | - | - | - |
* Rain since midnight (hover to see other rain measurements)
** Current wind speed in m/s (hover to see current wind gust speed)